Time;durP1;ratioP1;P1;durP2;ratioP2;P2;SDS_P1;SDS_P2;PMS_P1;PMS_P2;Temp;Humidity;BMP_temperature;BMP_pressure;BME280_temperature;BME280_humidity;BME280_pressure;Samples;Min_cycle;Max_cycle;Signal;HPM_P1;HPM_P2
2021/01/26 00:00:55;;;;;;;9.57;5.70;;;2.80;65.80;;;;;;5036175;28;20045;-71
2021/01/26 00:03:21;;;;;;;11.50;6.25;;;2.80;65.70;;;;;;5035879;28;20052;-71
2021/01/26 00:05:47;;;;;;;10.90;6.45;;;2.90;65.80;;;;;;5018331;28;20037;-71
2021/01/26 00:08:13;;;;;;;11.75;7.32;;;2.50;65.70;;;;;;5036144;28;20095;-71
2021/01/26 00:10:39;;;;;;;13.15;7.75;;;2.70;65.90;;;;;;5034520;28;20076;-71
2021/01/26 00:13:07;;;;;;;13.27;8.02;;;2.80;66.00;;;;;;5035672;28;20037;-71
2021/01/26 00:15:34;;;;;;;11.30;7.82;;;2.60;66.10;;;;;;5035589;28;20172;-71
2021/01/26 00:18:00;;;;;;;15.70;10.00;;;2.90;66.30;;;;;;5036097;28;20567;-71
2021/01/26 00:20:26;;;;;;;16.58;11.20;;;2.70;66.10;;;;;;5035443;28;20045;-71
2021/01/26 00:22:52;;;;;;;19.85;12.38;;;2.80;66.20;;;;;;5035457;28;20128;-71
2021/01/26 00:25:25;;;;;;;26.05;15.02;;;2.60;66.10;;;;;;5035600;28;20037;-71
2021/01/26 00:27:51;;;;;;;28.25;16.67;;;2.80;66.30;;;;;;5035375;28;20045;-71
2021/01/26 00:30:22;;;;;;;28.80;17.88;;;2.60;66.30;;;;;;5035539;28;20049;-71
2021/01/26 00:32:48;;;;;;;29.73;17.80;;;2.50;66.10;;;;;;5035516;28;20064;-71
2021/01/26 00:35:15;;;;;;;29.85;18.73;;;2.60;66.40;;;;;;5052772;28;20102;-71
2021/01/26 00:37:42;;;;;;;29.50;17.20;;;2.50;66.30;;;;;;5055219;28;20519;-71
2021/01/26 00:40:08;;;;;;;27.02;16.88;;;2.70;66.50;;;;;;5055391;28;20129;-71
2021/01/26 00:42:34;;;;;;;28.63;15.07;;;2.40;66.30;;;;;;5055558;28;20043;-71
2021/01/26 00:45:00;;;;;;;20.30;13.07;;;2.80;66.70;;;;;;5055018;28;20531;-70
2021/01/26 00:47:26;;;;;;;20.17;11.82;;;2.70;66.70;;;;;;5055083;28;20132;-71
2021/01/26 00:49:52;;;;;;;21.55;12.20;;;2.40;66.60;;;;;;5055371;28;20440;-71
2021/01/26 00:52:19;;;;;;;21.13;12.68;;;3.00;66.90;;;;;;5055108;28;20049;-71
2021/01/26 00:54:44;;;;;;;18.17;11.38;;;2.90;66.80;;;;;;5055119;28;20073;-71
2021/01/26 00:57:10;;;;;;;20.40;12.02;;;2.30;66.50;;;;;;5054434;28;20481;-71
2021/01/26 00:59:36;;;;;;;17.25;11.35;;;3.00;67.00;;;;;;5054998;28;20060;-71
2021/01/26 01:02:02;;;;;;;22.13;11.38;;;2.70;67.00;;;;;;5054857;28;20052;-71
2021/01/26 01:04:28;;;;;;;19.30;11.52;;;2.90;66.90;;;;;;5055449;28;20037;-71
2021/01/26 01:06:54;;;;;;;19.98;11.40;;;3.10;67.10;;;;;;5055005;28;20036;-71
2021/01/26 01:09:20;;;;;;;21.75;11.65;;;2.60;67.00;;;;;;5054792;28;20064;-71
2021/01/26 01:11:46;;;;;;;18.25;11.98;;;2.90;67.20;;;;;;5054958;28;20171;-71
2021/01/26 01:14:12;;;;;;;18.38;12.02;;;2.90;67.30;;;;;;5054871;28;20040;-71
2021/01/26 01:16:38;;;;;;;19.58;11.60;;;3.40;67.70;;;;;;5055031;28;20033;-71
2021/01/26 01:19:04;;;;;;;18.13;11.30;;;3.00;67.50;;;;;;5055195;28;20040;-71
2021/01/26 01:21:29;;;;;;;19.13;11.40;;;3.40;67.70;;;;;;5055078;28;20074;-71
2021/01/26 01:23:55;;;;;;;17.30;10.38;;;2.80;67.40;;;;;;5054589;28;20033;-71
2021/01/26 01:26:21;;;;;;;18.88;11.85;;;2.90;67.40;;;;;;5054727;28;20564;-71
2021/01/26 01:28:47;;;;;;;17.15;11.07;;;3.10;67.50;;;;;;5054343;28;20048;-71
2021/01/26 01:31:12;;;;;;;19.77;11.85;;;2.90;67.50;;;;;;5054552;28;20065;-71
2021/01/26 01:33:39;;;;;;;20.23;12.13;;;3.70;67.90;;;;;;5054433;28;20500;-71
2021/01/26 01:36:05;;;;;;;19.60;12.45;;;3.10;67.50;;;;;;5054251;28;20029;-71
2021/01/26 01:38:31;;;;;;;19.45;11.77;;;2.90;67.40;;;;;;5053973;28;20045;-71
2021/01/26 01:40:57;;;;;;;21.08;13.45;;;2.80;67.30;;;;;;5054196;28;20519;-72
2021/01/26 01:43:22;;;;;;;22.90;13.05;;;2.70;67.20;;;;;;5054287;28;20039;-71
2021/01/26 01:45:49;;;;;;;21.25;12.70;;;2.70;67.30;;;;;;5054239;28;20044;-71
2021/01/26 01:48:28;;;;;;;22.42;13.15;;;3.20;67.60;;;;;;5054191;28;20101;-71
2021/01/26 01:50:59;;;;;;;21.25;13.10;;;2.80;67.50;;;;;;5053719;28;20029;-71
2021/01/26 01:53:35;;;;;;;21.55;13.05;;;2.80;67.60;;;;;;5052834;28;20116;-71
2021/01/26 01:56:18;;;;;;;18.63;12.70;;;2.60;67.40;;;;;;5051050;28;20423;-71
2021/01/26 01:58:57;;;;;;;17.40;12.05;;;2.70;67.60;;;;;;5051907;28;20527;-71
2021/01/26 02:01:26;;;;;;;21.00;12.90;;;3.10;67.90;;;;;;5051607;28;20128;-71
2021/01/26 02:04:06;;;;;;;22.75;13.23;;;2.60;67.70;;;;;;5051322;28;20049;-71
2021/01/26 02:06:35;;;;;;;19.75;12.30;;;2.80;67.70;;;;;;5051878;28;20086;-71
2021/01/26 02:09:13;;;;;;;19.80;12.80;;;2.60;67.80;;;;;;5051729;28;20049;-71
2021/01/26 02:11:39;;;;;;;19.98;13.23;;;3.00;68.10;;;;;;5054115;28;20037;-71
2021/01/26 02:14:05;;;;;;;19.48;12.85;;;2.90;68.00;;;;;;5042963;28;20175;-71
2021/01/26 02:16:47;;;;;;;21.77;13.82;;;2.60;67.90;;;;;;5036680;28;20071;-71
2021/01/26 02:19:51;;;;;;;20.25;12.23;;;3.00;68.00;;;;;;5053587;28;20100;-71
2021/01/26 02:22:47;;;;;;;21.45;13.38;;;2.80;68.00;;;;;;5053151;28;20040;-71
2021/01/26 02:25:49;;;;;;;22.35;12.77;;;3.00;68.20;;;;;;5046792;28;20091;-71
2021/01/26 02:28:39;;;;;;;22.25;13.18;;;3.00;68.30;;;;;;5038768;28;20048;-71
2021/01/26 02:31:26;;;;;;;22.70;13.80;;;3.00;68.30;;;;;;5053549;28;20506;-71
2021/01/26 02:34:29;;;;;;;23.48;13.93;;;3.10;68.60;;;;;;5053645;28;20037;-71
2021/01/26 02:37:27;;;;;;;19.08;13.13;;;3.00;68.60;;;;;;5053510;28;20120;-71
2021/01/26 02:40:20;;;;;;;19.05;12.90;;;3.10;68.60;;;;;;5029755;28;20037;-71
2021/01/26 02:42:55;;;;;;;23.00;13.98;;;3.40;68.80;;;;;;5053966;28;20488;-71
2021/01/26 02:45:37;;;;;;;21.00;14.20;;;3.20;68.60;;;;;;5053515;28;20037;-71
2021/01/26 02:48:11;;;;;;;20.35;13.57;;;3.40;68.90;;;;;;5053493;28;20135;-71
2021/01/26 02:50:52;;;;;;;22.42;13.95;;;3.10;68.50;;;;;;5053183;28;20087;-71
2021/01/26 02:53:50;;;;;;;26.25;14.02;;;3.70;69.20;;;;;;5053693;28;20496;-71
2021/01/26 02:56:36;;;;;;;25.23;14.13;;;3.60;68.80;;;;;;5053026;28;20486;-71
2021/01/26 02:59:10;;;;;;;21.38;13.85;;;3.30;68.60;;;;;;5036709;28;20049;-71
2021/01/26 03:01:41;;;;;;;22.55;12.98;;;3.40;68.80;;;;;;5032835;28;20049;-71
2021/01/26 03:04:13;;;;;;;20.50;12.27;;;3.50;68.80;;;;;;5033272;28;20053;-71
2021/01/26 03:06:44;;;;;;;19.92;11.85;;;3.50;68.70;;;;;;5033304;28;20033;-71
2021/01/26 03:09:16;;;;;;;18.60;12.45;;;3.30;68.50;;;;;;5033102;28;20176;-71
2021/01/26 03:11:49;;;;;;;22.33;12.07;;;3.00;68.30;;;;;;5033491;28;20033;-71
2021/01/26 03:14:40;;;;;;;20.42;12.85;;;3.10;68.50;;;;;;5033453;28;20045;-71
2021/01/26 03:17:19;;;;;;;22.13;13.15;;;3.20;68.60;;;;;;5033600;28;20045;-71
2021/01/26 03:19:49;;;;;;;23.67;14.65;;;3.80;69.00;;;;;;5034150;28;20172;-71
2021/01/26 03:22:17;;;;;;;21.83;13.77;;;3.20;68.60;;;;;;5036514;28;20127;-71
2021/01/26 03:24:45;;;;;;;23.60;14.38;;;3.30;68.70;;;;;;5037173;28;20500;-71
2021/01/26 03:27:17;;;;;;;26.67;15.55;;;2.80;68.40;;;;;;5036834;28;20044;-71
2021/01/26 03:29:48;;;;;;;22.92;13.85;;;3.30;68.80;;;;;;5038773;28;20041;-71
2021/01/26 03:32:22;;;;;;;26.17;15.07;;;3.10;68.80;;;;;;5055748;28;20044;-71
2021/01/26 03:34:48;;;;;;;28.35;15.45;;;2.90;68.70;;;;;;5056140;28;20522;-71
2021/01/26 03:37:14;;;;;;;24.60;15.88;;;3.20;68.90;;;;;;5056273;28;20095;-71
2021/01/26 03:39:40;;;;;;;21.95;14.25;;;2.60;68.60;;;;;;5056634;28;20056;-71
2021/01/26 03:42:07;;;;;;;25.10;15.30;;;2.80;68.80;;;;;;5056090;28;20522;-71
2021/01/26 03:44:33;;;;;;;24.00;14.20;;;3.20;69.20;;;;;;5054663;28;20044;-71
2021/01/26 03:47:12;;;;;;;24.83;14.90;;;2.80;69.00;;;;;;5054288;28;20072;-71
2021/01/26 03:49:59;;;;;;;22.17;13.85;;;3.10;69.30;;;;;;5054662;28;20053;-70
2021/01/26 03:53:10;;;;;;;22.13;13.38;;;2.80;69.00;;;;;;5054758;28;20488;-71
2021/01/26 03:55:56;;;;;;;22.65;13.63;;;3.10;69.20;;;;;;5054535;28;20040;-71
2021/01/26 03:58:54;;;;;;;24.13;13.23;;;3.30;69.30;;;;;;5054938;28;20151;-71
2021/01/26 04:01:46;;;;;;;21.52;12.68;;;3.30;69.30;;;;;;5056393;28;20039;-71
2021/01/26 04:04:31;;;;;;;24.17;13.38;;;3.10;69.20;;;;;;5055623;28;20047;-71
2021/01/26 04:07:02;;;;;;;22.07;11.90;;;3.40;69.70;;;;;;5055722;28;20033;-71
2021/01/26 04:09:43;;;;;;;21.40;13.43;;;3.10;69.50;;;;;;5056136;28;20033;-71
2021/01/26 04:12:16;;;;;;;20.67;13.20;;;3.40;69.80;;;;;;5055910;28;20067;-71
2021/01/26 04:15:03;;;;;;;22.90;12.73;;;3.60;69.80;;;;;;5055915;28;20029;-71
2021/01/26 04:17:33;;;;;;;20.77;12.88;;;2.80;69.30;;;;;;5055491;28;20079;-71
2021/01/26 04:20:30;;;;;;;18.58;12.48;;;2.90;69.40;;;;;;5055771;28;20037;-71
2021/01/26 04:22:58;;;;;;;21.10;12.27;;;3.50;69.90;;;;;;5055826;28;20044;-71
2021/01/26 04:25:45;;;;;;;20.13;12.55;;;3.20;69.80;;;;;;5055701;28;20063;-71
2021/01/26 04:28:15;;;;;;;20.50;12.57;;;3.00;69.80;;;;;;5055628;28;20140;-71
2021/01/26 04:30:41;;;;;;;21.65;12.40;;;3.30;70.00;;;;;;5054711;28;20079;-71
2021/01/26 04:33:11;;;;;;;21.60;12.75;;;3.30;70.10;;;;;;5055241;28;20045;-71
2021/01/26 04:35:37;;;;;;;19.50;12.07;;;3.40;70.10;;;;;;5055292;28;20036;-71
2021/01/26 04:38:03;;;;;;;20.73;12.48;;;3.50;70.10;;;;;;5055004;28;20052;-71
2021/01/26 04:40:30;;;;;;;19.98;11.05;;;3.50;70.10;;;;;;5055419;28;20041;-71
2021/01/26 04:43:23;;;;;;;21.33;12.25;;;3.50;70.00;;;;;;5055188;28;20037;-71
2021/01/26 04:46:04;;;;;;;17.15;11.05;;;3.40;70.00;;;;;;5055220;28;20072;-71
2021/01/26 04:48:37;;;;;;;19.23;10.68;;;3.40;70.10;;;;;;5055434;28;20143;-71
2021/01/26 04:51:19;;;;;;;18.58;11.25;;;3.50;70.00;;;;;;5054952;28;20036;-71
2021/01/26 04:54:22;;;;;;;17.48;11.07;;;3.20;69.70;;;;;;5055446;28;20488;-71
2021/01/26 04:57:11;;;;;;;18.80;11.00;;;3.70;70.00;;;;;;5055035;28;20041;-71
2021/01/26 04:59:40;;;;;;;19.42;10.93;;;3.20;69.70;;;;;;5026127;28;20178;-71
2021/01/26 05:02:15;;;;;;;18.95;10.57;;;3.10;69.80;;;;;;5054343;28;20091;-70
2021/01/26 05:04:51;;;;;;;18.23;10.75;;;3.20;69.90;;;;;;5055035;28;20037;-71
2021/01/26 05:07:27;;;;;;;18.98;11.05;;;3.30;70.10;;;;;;5054419;28;20049;-71
2021/01/26 05:10:05;;;;;;;16.08;10.60;;;3.00;70.10;;;;;;5054746;28;20040;-71
2021/01/26 05:12:38;;;;;;;21.35;10.52;;;3.20;70.10;;;;;;5055270;28;20072;-70
2021/01/26 05:15:06;;;;;;;19.80;10.20;;;3.20;70.30;;;;;;5054867;28;20032;-71
2021/01/26 05:17:41;;;;;;;19.15;9.98;;;3.10;70.30;;;;;;5054892;28;20170;-71
2021/01/26 05:20:20;;;;;;;15.27;10.43;;;3.20;70.40;;;;;;5054732;28;20033;-71
2021/01/26 05:23:13;;;;;;;18.38;10.52;;;3.00;70.30;;;;;;5054461;28;20075;-71
2021/01/26 05:25:39;;;;;;;14.38;9.30;;;3.30;70.40;;;;;;5054753;28;20504;-71
2021/01/26 05:28:06;;;;;;;17.52;10.27;;;3.20;70.50;;;;;;5054316;28;20051;-71
2021/01/26 05:30:34;;;;;;;16.20;9.77;;;3.00;70.40;;;;;;5054682;28;20543;-71
2021/01/26 05:33:11;;;;;;;16.50;9.65;;;3.00;70.40;;;;;;5054381;28;20120;-71
2021/01/26 05:35:44;;;;;;;18.02;9.32;;;3.00;70.50;;;;;;5053959;28;20500;-71
2021/01/26 05:38:10;;;;;;;14.07;8.43;;;2.90;70.40;;;;;;5054528;28;20079;-71
2021/01/26 05:40:43;;;;;;;20.80;11.48;;;3.60;71.00;;;;;;5054511;28;20036;-71
2021/01/26 05:43:15;;;;;;;15.52;9.57;;;3.20;70.80;;;;;;5054339;28;20041;-71
2021/01/26 05:45:45;;;;;;;16.40;10.13;;;3.30;70.90;;;;;;5053703;28;20063;-71
2021/01/26 05:48:14;;;;;;;14.38;9.00;;;3.20;70.90;;;;;;5054033;28;20052;-71
2021/01/26 05:50:44;;;;;;;14.93;9.18;;;3.00;70.80;;;;;;5053831;28;20500;-71
2021/01/26 05:53:21;;;;;;;13.13;7.85;;;3.40;71.10;;;;;;5053885;28;20052;-72
2021/01/26 05:55:58;;;;;;;15.10;8.65;;;3.30;71.00;;;;;;5053256;28;20037;-70
2021/01/26 05:58:30;;;;;;;16.60;8.63;;;3.60;71.20;;;;;;5053445;28;20097;-71
2021/01/26 06:00:58;;;;;;;15.23;8.75;;;3.40;71.10;;;;;;5053427;28;20055;-71
2021/01/26 06:03:24;;;;;;;12.10;8.05;;;3.70;71.10;;;;;;5053721;28;20037;-71
2021/01/26 06:05:58;;;;;;;12.60;7.82;;;3.50;71.00;;;;;;5045444;28;20091;-71
2021/01/26 06:08:24;;;;;;;14.02;8.48;;;3.80;71.20;;;;;;5044107;28;20045;-71
2021/01/26 06:10:50;;;;;;;11.25;7.97;;;3.70;70.90;;;;;;5047820;28;20558;-71
2021/01/26 06:13:28;;;;;;;12.65;8.30;;;3.80;70.90;;;;;;5053981;28;20072;-71
2021/01/26 06:16:15;;;;;;;11.93;7.68;;;3.60;70.70;;;;;;5053814;28;20079;-71
2021/01/26 06:18:56;;;;;;;13.77;7.88;;;3.80;70.80;;;;;;5054054;28;20546;-71
2021/01/26 06:21:22;;;;;;;12.75;8.10;;;3.70;70.80;;;;;;5053700;28;20043;-71
2021/01/26 06:23:48;;;;;;;10.95;7.75;;;3.90;70.90;;;;;;5047326;28;20053;-71
2021/01/26 06:26:14;;;;;;;16.67;8.20;;;4.10;71.10;;;;;;5033143;28;20041;-71
2021/01/26 06:28:54;;;;;;;11.90;7.55;;;4.20;71.10;;;;;;5033447;28;20057;-71
2021/01/26 06:31:45;;;;;;;16.20;8.90;;;3.70;70.90;;;;;;5033631;28;20049;-70
2021/01/26 06:34:55;;;;;;;19.45;10.40;;;4.00;70.90;;;;;;5038732;28;20041;-71
2021/01/26 06:37:30;;;;;;;23.38;12.07;;;4.10;71.10;;;;;;5038747;28;20037;-71
2021/01/26 06:40:28;;;;;;;18.92;10.50;;;4.10;71.10;;;;;;5053927;28;20048;-71
2021/01/26 06:43:30;;;;;;;14.02;8.68;;;4.00;71.10;;;;;;5052420;28;20040;-71
2021/01/26 06:46:08;;;;;;;12.38;7.95;;;4.30;71.40;;;;;;5053782;28;20037;-70
2021/01/26 06:48:52;;;;;;;13.88;8.23;;;4.40;71.40;;;;;;5053741;28;20485;-70
2021/01/26 06:51:46;;;;;;;12.10;7.57;;;4.50;71.40;;;;;;5051368;28;20048;-72
2021/01/26 06:54:39;;;;;;;11.50;7.18;;;4.70;71.50;;;;;;5036297;28;20033;-71
2021/01/26 06:57:37;;;;;;;9.48;7.05;;;4.30;71.30;;;;;;5054559;28;20062;-70
2021/01/26 07:00:03;;;;;;;14.55;7.40;;;4.20;71.10;;;;;;5056828;28;20480;-71
2021/01/26 07:02:40;;;;;;;14.07;7.53;;;4.50;71.30;;;;;;5056456;28;20098;-70
2021/01/26 07:05:44;;;;;;;11.27;7.50;;;4.90;71.30;;;;;;5055640;28;20119;-70
2021/01/26 07:08:42;;;;;;;12.73;8.02;;;4.60;71.10;;;;;;5056618;28;20068;-71
2021/01/26 07:11:27;;;;;;;12.52;8.02;;;4.40;70.90;;;;;;5023260;28;20033;-71
2021/01/26 07:14:00;;;;;;;14.68;8.32;;;4.50;70.90;;;;;;5056619;28;20132;-71
2021/01/26 07:16:47;;;;;;;12.52;7.93;;;4.60;71.00;;;;;;5056290;28;20124;-71
2021/01/26 07:19:24;;;;;;;11.68;7.82;;;4.40;70.80;;;;;;5055604;28;20067;-72
2021/01/26 07:21:59;;;;;;;11.93;7.60;;;4.70;71.00;;;;;;5055929;28;20041;-70
2021/01/26 07:24:57;;;;;;;12.05;7.32;;;4.70;71.20;;;;;;5056132;28;20098;-72
2021/01/26 07:27:38;;;;;;;11.55;6.88;;;4.60;71.00;;;;;;5053043;28;20508;-71
2021/01/26 07:30:10;;;;;;;10.10;6.93;;;4.80;71.20;;;;;;5038184;28;20041;-72
2021/01/26 07:32:55;;;;;;;13.52;6.85;;;4.70;71.20;;;;;;5044783;28;20088;-72
2021/01/26 07:35:39;;;;;;;13.18;6.90;;;4.60;71.20;;;;;;5036117;28;20041;-71
2021/01/26 07:38:34;;;;;;;10.70;7.05;;;4.90;71.50;;;;;;5036214;28;20095;-71
2021/01/26 07:41:14;;;;;;;11.73;7.38;;;4.50;71.10;;;;;;5028450;28;20037;-71
2021/01/26 07:43:46;;;;;;;10.07;6.80;;;4.60;71.10;;;;;;5035508;28;20042;-71
2021/01/26 07:46:36;;;;;;;9.55;6.82;;;4.60;71.30;;;;;;5035796;28;20037;-71
2021/01/26 07:49:15;;;;;;;10.20;7.00;;;4.90;71.40;;;;;;5035173;28;20137;-71
2021/01/26 07:51:45;;;;;;;15.10;6.97;;;4.60;71.20;;;;;;5035626;28;20049;-71
2021/01/26 07:54:32;;;;;;;8.68;6.50;;;4.70;71.30;;;;;;5036029;28;20040;-71
2021/01/26 07:57:02;;;;;;;13.00;7.05;;;4.80;71.20;;;;;;5034935;28;20037;-71
2021/01/26 07:59:32;;;;;;;10.57;6.50;;;4.80;71.30;;;;;;5035985;28;20599;-71
2021/01/26 08:02:01;;;;;;;8.90;5.97;;;5.00;71.30;;;;;;5035607;28;20132;-71
2021/01/26 08:04:39;;;;;;;10.48;6.03;;;4.80;71.10;;;;;;5035703;28;20042;-71
2021/01/26 08:07:06;;;;;;;10.40;6.75;;;5.00;71.30;;;;;;5034272;28;20065;-71
2021/01/26 08:09:46;;;;;;;9.10;6.28;;;5.00;71.40;;;;;;5036581;28;20124;-71
2021/01/26 08:12:15;;;;;;;9.85;6.50;;;5.00;71.40;;;;;;5035424;28;20029;-70
2021/01/26 08:14:53;;;;;;;11.80;6.47;;;5.10;71.50;;;;;;5052418;28;20044;-71
2021/01/26 08:17:32;;;;;;;7.47;5.60;;;5.30;71.50;;;;;;5034632;28;20052;-71
2021/01/26 08:20:21;;;;;;;9.73;5.88;;;5.30;71.50;;;;;;5055209;28;20139;-71
2021/01/26 08:23:03;;;;;;;9.57;5.93;;;5.40;71.50;;;;;;5054080;28;20087;-71
2021/01/26 08:25:33;;;;;;;9.18;5.50;;;5.10;71.30;;;;;;5054202;28;20052;-71
2021/01/26 08:28:02;;;;;;;9.57;5.60;;;5.30;71.40;;;;;;5054999;28;20115;-71
2021/01/26 08:30:33;;;;;;;9.40;6.35;;;5.30;71.40;;;;;;5055593;28;20052;-71
2021/01/26 08:33:14;;;;;;;9.25;5.38;;;5.50;71.50;;;;;;5036954;28;20397;-71
2021/01/26 08:35:43;;;;;;;9.43;6.00;;;5.50;71.40;;;;;;5050966;28;20041;-71
2021/01/26 08:38:30;;;;;;;8.80;5.32;;;5.60;71.30;;;;;;5055274;28;20123;-71
2021/01/26 08:40:58;;;;;;;9.52;5.70;;;6.00;71.50;;;;;;5049222;28;20119;-71
2021/01/26 08:43:47;;;;;;;9.95;5.70;;;5.50;71.20;;;;;;5050771;28;20064;-71
2021/01/26 08:46:34;;;;;;;10.07;6.05;;;5.90;71.40;;;;;;5046769;28;20033;-71
2021/01/26 08:49:21;;;;;;;8.70;5.80;;;6.20;71.50;;;;;;5035466;28;20041;-71
2021/01/26 08:51:47;;;;;;;9.65;5.72;;;5.90;71.20;;;;;;5034250;28;20048;-71
2021/01/26 08:54:35;;;;;;;9.82;5.47;;;6.10;71.30;;;;;;5035092;28;20547;-71
2021/01/26 08:57:01;;;;;;;12.45;7.05;;;6.20;71.20;;;;;;5035262;28;20057;-71
2021/01/26 08:59:31;;;;;;;12.07;6.63;;;6.20;71.20;;;;;;5035036;28;20076;-71
2021/01/26 09:01:59;;;;;;;13.10;6.75;;;6.30;71.30;;;;;;5035168;28;20038;-71
2021/01/26 09:04:27;;;;;;;12.40;7.05;;;6.20;71.20;;;;;;5050248;28;20036;-71
2021/01/26 09:06:53;;;;;;;12.18;7.40;;;6.30;71.20;;;;;;5054259;28;20037;-71
2021/01/26 09:09:19;;;;;;;12.25;7.38;;;6.40;71.30;;;;;;5054529;28;20504;-71
2021/01/26 09:11:45;;;;;;;10.82;6.68;;;6.40;71.20;;;;;;5054559;28;20124;-71
2021/01/26 09:14:44;;;;;;;11.27;5.60;;;6.60;71.20;;;;;;5053505;28;20450;-71
2021/01/26 09:17:32;;;;;;;7.07;5.07;;;6.60;71.10;;;;;;5053845;28;20377;-71
2021/01/26 09:20:16;;;;;;;9.57;4.72;;;6.50;71.10;;;;;;5054704;28;20599;-71
2021/01/26 09:22:42;;;;;;;8.00;5.10;;;6.50;71.00;;;;;;5054296;28;20044;-72
2021/01/26 09:25:11;;;;;;;8.15;5.15;;;6.70;71.10;;;;;;5054209;28;20549;-71
2021/01/26 09:27:37;;;;;;;8.73;5.53;;;6.70;71.10;;;;;;5053403;28;20041;-71
2021/01/26 09:30:25;;;;;;;10.63;5.47;;;6.80;71.30;;;;;;5052958;28;20052;-71
2021/01/26 09:33:07;;;;;;;9.75;5.50;;;6.60;71.20;;;;;;5054125;28;20579;-71
2021/01/26 09:35:40;;;;;;;8.98;6.38;;;7.00;71.20;;;;;;5040257;28;20033;-71
2021/01/26 09:38:26;;;;;;;11.95;5.50;;;6.90;71.10;;;;;;5037372;28;20136;-71
2021/01/26 09:41:03;;;;;;;10.45;5.22;;;7.20;71.20;;;;;;5042846;28;20069;-71
2021/01/26 09:43:43;;;;;;;12.10;5.78;;;6.90;71.10;;;;;;5034543;28;20033;-71
2021/01/26 09:46:13;;;;;;;6.82;4.30;;;7.00;71.10;;;;;;5016322;28;20045;-71
2021/01/26 09:48:45;;;;;;;6.60;4.55;;;7.00;71.10;;;;;;5033827;28;20049;-71
2021/01/26 09:51:16;;;;;;;5.40;4.32;;;7.40;71.40;;;;;;5033935;28;20469;-71
2021/01/26 09:53:45;;;;;;;8.90;5.00;;;7.20;71.40;;;;;;5036489;28;20528;-71
2021/01/26 09:56:16;;;;;;;6.90;4.22;;;7.50;71.40;;;;;;5050998;28;20496;-71
2021/01/26 09:58:45;;;;;;;8.05;4.40;;;7.40;71.50;;;;;;5051113;28;20049;-71
2021/01/26 10:01:12;;;;;;;7.63;4.22;;;7.30;71.30;;;;;;5052558;28;20124;-71
2021/01/26 10:03:39;;;;;;;8.38;4.03;;;7.30;71.20;;;;;;5052336;28;20163;-71
2021/01/26 10:06:05;;;;;;;7.45;3.97;;;7.50;71.20;;;;;;5053508;28;20049;-71
2021/01/26 10:08:33;;;;;;;8.38;3.78;;;7.50;71.30;;;;;;5053349;28;20079;-71
2021/01/26 10:11:18;;;;;;;8.23;4.07;;;7.60;71.30;;;;;;5052683;28;20036;-71
2021/01/26 10:13:46;;;;;;;8.15;4.35;;;7.60;71.20;;;;;;5053816;28;20140;-71
2021/01/26 10:16:31;;;;;;;7.50;4.30;;;7.60;71.10;;;;;;5053714;28;20041;-71
2021/01/26 10:19:12;;;;;;;9.00;4.30;;;7.70;71.10;;;;;;5053425;28;20053;-70
2021/01/26 10:21:38;;;;;;;9.55;4.35;;;7.80;71.10;;;;;;5053466;28;20044;-71
2021/01/26 10:24:11;;;;;;;6.80;4.10;;;7.80;71.00;;;;;;5049669;28;20412;-71
2021/01/26 10:26:39;;;;;;;8.10;4.50;;;7.80;70.90;;;;;;5051664;28;20068;-71
2021/01/26 10:29:12;;;;;;;8.55;4.68;;;7.90;70.90;;;;;;5052369;28;20056;-71
2021/01/26 10:31:49;;;;;;;6.65;4.28;;;7.90;71.00;;;;;;5057352;28;20032;-71
2021/01/26 10:34:19;;;;;;;9.77;4.45;;;8.00;70.90;;;;;;5057696;28;20048;-71
2021/01/26 10:36:45;;;;;;;11.05;4.53;;;7.90;70.90;;;;;;5057681;28;20554;-72
2021/01/26 10:39:28;;;;;;;7.05;4.10;;;8.00;70.90;;;;;;5057454;28;20045;-71
2021/01/26 10:42:15;;;;;;;8.82;3.85;;;7.80;70.80;;;;;;5057341;28;20033;-71
2021/01/26 10:44:46;;;;;;;8.73;4.78;;;7.80;70.80;;;;;;5056673;28;20036;-71
2021/01/26 10:47:29;;;;;;;7.80;4.50;;;7.90;71.00;;;;;;5055472;28;20047;-71
2021/01/26 10:50:07;;;;;;;8.68;4.75;;;7.80;70.80;;;;;;5017688;23;20086;-71
2021/01/26 10:52:43;;;;;;;9.43;4.85;;;7.80;70.90;;;;;;4979133;28;20498;-72
2021/01/26 10:55:13;;;;;;;8.18;5.03;;;8.00;71.00;;;;;;4977770;28;20046;-72
2021/01/26 10:57:40;;;;;;;9.13;4.30;;;8.10;71.10;;;;;;4985263;28;20069;-71
2021/01/26 11:00:08;;;;;;;9.25;4.00;;;8.20;71.20;;;;;;4997528;28;20053;-71
2021/01/26 11:02:34;;;;;;;7.45;3.83;;;8.30;71.20;;;;;;4998577;28;20065;-71
2021/01/26 11:05:00;;;;;;;5.95;3.50;;;8.30;71.20;;;;;;4998092;28;20030;-70
2021/01/26 11:07:26;;;;;;;5.55;3.30;;;8.60;71.10;;;;;;4997506;28;20509;-71
2021/01/26 11:09:52;;;;;;;6.45;3.72;;;8.50;71.00;;;;;;4997898;28;20516;-71
2021/01/26 11:12:19;;;;;;;7.50;3.63;;;8.30;70.70;;;;;;4997740;28;20041;-71
2021/01/26 11:14:48;;;;;;;10.85;6.03;;;8.90;71.00;;;;;;4997919;28;20038;-71
2021/01/26 11:17:15;;;;;;;11.85;6.32;;;8.50;70.70;;;;;;4997899;28;20044;-71
2021/01/26 11:19:43;;;;;;;10.57;5.80;;;8.30;70.70;;;;;;4997586;28;20038;-71
2021/01/26 11:22:09;;;;;;;10.35;5.28;;;8.40;70.70;;;;;;4997500;28;20038;-71
2021/01/26 11:24:35;;;;;;;9.43;4.50;;;8.20;70.50;;;;;;4996354;28;20046;-71
2021/01/26 11:27:01;;;;;;;7.03;4.45;;;8.40;70.60;;;;;;4994063;28;20046;-70
2021/01/26 11:29:27;;;;;;;10.00;4.00;;;8.50;70.70;;;;;;4996865;28;20050;-71
2021/01/26 11:31:53;;;;;;;7.03;3.28;;;8.70;70.60;;;;;;5001548;28;20615;-71
2021/01/26 11:34:19;;;;;;;7.97;3.50;;;8.70;70.50;;;;;;5004108;28;20123;-71
2021/01/26 11:36:45;;;;;;;7.90;3.45;;;8.70;70.50;;;;;;5004621;28;20045;-71
2021/01/26 11:39:11;;;;;;;6.43;3.30;;;8.50;70.20;;;;;;5006764;28;20046;-71
2021/01/26 11:41:38;;;;;;;6.95;3.80;;;8.50;70.30;;;;;;5013058;28;20065;-71
2021/01/26 11:44:04;;;;;;;6.90;3.78;;;8.50;70.20;;;;;;5016747;28;20503;-71
2021/01/26 11:46:31;;;;;;;7.40;3.53;;;8.90;70.50;;;;;;5016612;28;20127;-71
2021/01/26 11:48:57;;;;;;;8.13;3.67;;;8.90;70.30;;;;;;5015958;28;20068;-71
2021/01/26 11:51:23;;;;;;;7.57;3.15;;;9.00;70.30;;;;;;5016410;28;20042;-71
2021/01/26 11:53:49;;;;;;;6.57;3.50;;;8.80;70.00;;;;;;5004377;28;20162;-71
2021/01/26 11:56:15;;;;;;;7.90;3.20;;;8.80;69.90;;;;;;4995124;28;20498;-71
2021/01/26 11:58:40;;;;;;;9.50;4.10;;;8.70;69.80;;;;;;4995077;28;20053;-71
2021/01/26 12:01:06;;;;;;;8.32;3.80;;;8.80;69.80;;;;;;4995044;28;20532;-70
2021/01/26 12:03:33;;;;;;;6.60;4.22;;;8.60;69.80;;;;;;4996864;28;20072;-71
2021/01/26 12:05:59;;;;;;;6.03;3.80;;;8.50;69.90;;;;;;4996746;28;20065;-71
2021/01/26 12:08:25;;;;;;;6.15;3.42;;;8.20;70.00;;;;;;4996785;28;20070;-70
2021/01/26 12:10:51;;;;;;;7.50;3.83;;;8.30;70.30;;;;;;4996891;28;20042;-71
2021/01/26 12:13:18;;;;;;;7.47;3.28;;;8.10;70.30;;;;;;4996778;28;20398;-71
2021/01/26 12:15:44;;;;;;;7.00;3.83;;;8.10;70.40;;;;;;4996938;28;20125;-70
2021/01/26 12:18:11;;;;;;;7.57;3.83;;;8.10;70.50;;;;;;4996488;28;20050;-71
2021/01/26 12:20:37;;;;;;;8.05;3.50;;;8.30;70.60;;;;;;4996258;28;20505;-71
2021/01/26 12:23:04;;;;;;;6.53;2.88;;;8.90;70.70;;;;;;4996564;28;20048;-71
2021/01/26 12:25:31;;;;;;;5.70;3.67;;;8.60;70.40;;;;;;4979327;28;20096;-71
2021/01/26 12:27:56;;;;;;;7.13;3.42;;;8.70;70.30;;;;;;4996635;28;20050;-71
2021/01/26 12:30:23;;;;;;;5.72;3.25;;;8.70;70.30;;;;;;4996580;28;20070;-71
2021/01/26 12:32:49;;;;;;;6.90;3.60;;;8.80;70.30;;;;;;4996243;28;20077;-71
2021/01/26 12:35:28;;;;;;;6.95;3.40;;;9.00;70.20;;;;;;4996069;28;20035;-71
2021/01/26 12:37:54;;;;;;;6.70;3.28;;;9.00;70.00;;;;;;4996234;28;20537;-71
2021/01/26 12:40:21;;;;;;;7.57;2.88;;;9.20;70.10;;;;;;4996267;28;20080;-71
2021/01/26 12:42:47;;;;;;;6.13;3.28;;;9.30;70.00;;;;;;4996307;28;20065;-71
2021/01/26 12:45:16;;;;;;;5.65;3.17;;;9.40;70.30;;;;;;4996063;28;20042;-71
2021/01/26 12:47:43;;;;;;;8.85;3.13;;;9.50;69.70;;;;;;4995333;28;20597;-71
2021/01/26 12:50:14;;;;;;;4.55;2.88;;;9.60;69.70;;;;;;4996602;28;20085;-71
2021/01/26 12:52:40;;;;;;;4.53;3.13;;;9.50;69.40;;;;;;4995374;28;20042;-71
2021/01/26 12:55:06;;;;;;;7.82;3.05;;;9.60;69.50;;;;;;4996268;28;20057;-71
2021/01/26 12:57:32;;;;;;;5.70;3.33;;;9.70;69.40;;;;;;4995559;28;20038;-71
2021/01/26 12:59:58;;;;;;;7.30;3.15;;;9.70;69.20;;;;;;4996033;28;20042;-70
2021/01/26 13:02:24;;;;;;;6.68;3.10;;;9.70;69.20;;;;;;5005205;28;20038;-70
2021/01/26 13:04:50;;;;;;;7.53;3.03;;;9.70;69.20;;;;;;5015882;28;20382;-70
2021/01/26 13:07:17;;;;;;;4.95;3.00;;;9.70;69.10;;;;;;5015329;28;20515;-70
2021/01/26 13:09:43;;;;;;;3.70;2.65;;;9.60;69.10;;;;;;5015573;28;20038;-70
2021/01/26 13:12:09;;;;;;;5.07;2.63;;;9.80;69.20;;;;;;5015547;28;20210;-70
2021/01/26 13:14:35;;;;;;;5.90;2.33;;;9.90;69.10;;;;;;5015041;28;20064;-71
2021/01/26 13:17:01;;;;;;;6.45;2.60;;;9.80;69.10;;;;;;5015501;28;20042;-71
2021/01/26 13:19:27;;;;;;;7.30;2.53;;;10.00;69.00;;;;;;5015793;28;20041;-71